createdAt,value
2019-05-14T00:00:26.510Z,993.14
2019-05-14T00:01:26.747Z,993.13
2019-05-14T00:03:31.198Z,993.05
2019-05-14T00:04:31.558Z,993.07
2019-05-14T00:06:35.302Z,993.09
2019-05-14T00:07:35.541Z,993.06
2019-05-14T00:09:41.331Z,993.10
2019-05-14T00:10:41.228Z,993.07
2019-05-14T00:12:33.023Z,993.02
2019-05-14T00:13:33.263Z,993.01
2019-05-14T00:15:37.432Z,992.98
2019-05-14T00:16:37.671Z,992.99
2019-05-14T00:18:42.119Z,992.91
2019-05-14T00:19:42.059Z,992.89
2019-05-14T00:21:46.228Z,992.87
2019-05-14T00:22:46.469Z,992.86
2019-05-14T00:24:51.985Z,992.78
2019-05-14T00:25:52.303Z,992.82
2019-05-14T00:27:55.050Z,992.78
2019-05-14T00:28:55.287Z,992.79
2019-05-14T00:30:59.456Z,992.73
2019-05-14T00:32:01.759Z,992.67
2019-05-14T00:34:03.854Z,992.68
2019-05-14T00:35:04.093Z,992.71
2019-05-14T00:37:08.264Z,992.67
2019-05-14T00:38:08.502Z,992.69
2019-05-14T00:40:12.670Z,992.66
2019-05-14T00:41:12.909Z,992.65
2019-05-14T00:43:17.055Z,992.70
2019-05-14T00:44:17.294Z,992.64
2019-05-14T00:46:21.470Z,992.66
2019-05-14T00:47:21.860Z,992.66
2019-05-14T00:49:25.852Z,992.68
2019-05-14T00:50:26.090Z,992.67
2019-05-14T00:52:19.190Z,992.66
2019-05-14T00:53:21.321Z,992.69
2019-05-14T00:55:23.605Z,992.67
2019-05-14T00:56:23.836Z,992.68
2019-05-14T00:58:27.986Z,992.67
2019-05-14T00:59:28.225Z,992.68
2019-05-14T01:01:32.392Z,992.67
2019-05-14T01:02:32.631Z,992.67
2019-05-14T01:04:36.778Z,992.66
2019-05-14T01:05:37.015Z,992.63
2019-05-14T01:07:42.337Z,992.67
2019-05-14T01:08:41.537Z,992.66
2019-05-14T01:10:45.595Z,992.65
2019-05-14T01:11:45.833Z,992.64
2019-05-14T01:13:52.065Z,992.64
2019-05-14T01:14:52.854Z,992.65
2019-05-14T01:16:54.382Z,992.64
2019-05-14T01:17:54.617Z,992.66
2019-05-14T01:19:58.763Z,992.59
2019-05-14T01:21:00.882Z,992.64
2019-05-14T01:22:52.103Z,992.58
2019-05-14T01:23:52.339Z,992.64
2019-05-14T01:25:56.512Z,992.60
2019-05-14T01:26:56.749Z,992.59
2019-05-14T01:29:01.437Z,992.55
2019-05-14T01:30:02.073Z,992.55
2019-05-14T01:32:05.304Z,992.56
2019-05-14T01:33:05.542Z,992.56
2019-05-14T01:35:11.829Z,992.56
2019-05-14T01:36:12.203Z,992.60
2019-05-14T01:38:14.095Z,992.53
2019-05-14T01:39:14.333Z,992.53
2019-05-14T01:41:18.510Z,992.57
2019-05-14T01:42:18.749Z,992.54
2019-05-14T01:44:22.893Z,992.58
2019-05-14T01:45:27.954Z,992.53
2019-05-14T01:47:27.303Z,992.56
2019-05-14T01:48:27.540Z,992.59
2019-05-14T01:50:32.269Z,992.57
2019-05-14T01:51:31.921Z,992.54
2019-05-14T01:53:36.099Z,992.54
2019-05-14T01:54:36.338Z,992.54
2019-05-14T01:56:42.355Z,992.52
2019-05-14T01:57:42.483Z,992.54
2019-05-14T01:59:44.890Z,992.53
2019-05-14T02:00:45.137Z,992.49
2019-05-14T02:02:38.236Z,992.47
2019-05-14T02:03:38.473Z,992.46
2019-05-14T02:05:42.621Z,992.48
2019-05-14T02:06:42.859Z,992.43
2019-05-14T02:08:47.028Z,992.49
2019-05-14T02:09:47.268Z,992.47
2019-05-14T02:11:51.946Z,992.51
2019-05-14T02:12:51.763Z,992.49
2019-05-14T02:14:55.828Z,992.47
2019-05-14T02:15:56.066Z,992.48
2019-05-14T02:18:02.311Z,992.47
2019-05-14T02:19:01.349Z,992.44
2019-05-14T02:21:04.633Z,992.45
2019-05-14T02:22:04.871Z,992.40
2019-05-14T02:24:11.197Z,992.44
2019-05-14T02:25:11.465Z,992.39
2019-05-14T02:27:13.455Z,992.37
2019-05-14T02:28:13.696Z,992.37
2019-05-14T02:30:20.259Z,992.39
2019-05-14T02:31:20.166Z,992.38
2019-05-14T02:33:22.249Z,992.37
2019-05-14T02:34:22.489Z,992.35
2019-05-14T02:36:26.636Z,992.36
2019-05-14T02:37:29.865Z,992.33
2019-05-14T02:39:31.044Z,992.36
2019-05-14T02:40:31.288Z,992.35
2019-05-14T02:42:24.361Z,992.31
2019-05-14T02:43:24.599Z,992.36
2019-05-14T02:45:30.243Z,992.36
2019-05-14T02:46:29.752Z,992.39
2019-05-14T02:48:33.174Z,992.35
2019-05-14T02:49:33.416Z,992.34
2019-05-14T02:51:39.134Z,992.32
2019-05-14T02:52:40.337Z,992.30
2019-05-14T02:54:41.964Z,992.32
2019-05-14T02:55:42.203Z,992.30
2019-05-14T02:57:46.386Z,992.27
2019-05-14T02:58:49.633Z,992.28
2019-05-14T03:00:50.773Z,992.26
2019-05-14T03:01:51.008Z,992.25
2019-05-14T03:03:55.176Z,992.21
2019-05-14T03:04:55.419Z,992.20
2019-05-14T03:06:59.561Z,992.23
2019-05-14T03:08:00.215Z,992.17
2019-05-14T03:10:03.971Z,992.18
2019-05-14T03:11:04.207Z,992.17
2019-05-14T03:13:09.607Z,992.13
2019-05-14T03:14:09.125Z,992.13
2019-05-14T03:16:26.591Z,992.11
2019-05-14T03:17:13.018Z,992.08
2019-05-14T03:19:19.658Z,992.08
2019-05-14T03:20:19.603Z,992.08
2019-05-14T03:22:10.626Z,992.07
2019-05-14T03:23:18.087Z,992.02
2019-05-14T03:25:14.907Z,992.06
2019-05-14T03:26:15.145Z,992.05
2019-05-14T03:28:20.017Z,992.07
2019-05-14T03:29:19.877Z,992.04
2019-05-14T03:31:23.713Z,992.03
2019-05-14T03:32:23.938Z,992.02
2019-05-14T03:34:33.019Z,992.03
2019-05-14T03:35:40.771Z,992.03
2019-05-14T03:37:32.498Z,992.06
2019-05-14T03:38:32.736Z,992.08
2019-05-14T03:40:39.736Z,992.07
2019-05-14T03:41:39.637Z,992.08
2019-05-14T03:43:41.327Z,992.05
2019-05-14T03:44:41.563Z,992.11
2019-05-14T03:46:54.844Z,992.10
2019-05-14T03:47:45.950Z,992.06
2019-05-14T03:49:50.150Z,992.07
2019-05-14T03:50:50.353Z,992.09
2019-05-14T03:52:43.560Z,992.04
2019-05-14T03:53:56.999Z,992.09
2019-05-14T03:55:50.582Z,992.09
2019-05-14T03:56:49.602Z,992.11
2019-05-14T03:58:52.350Z,992.06
2019-05-14T03:59:52.587Z,992.09
2019-05-14T04:01:59.630Z,992.10
2019-05-14T04:03:00.211Z,992.11
2019-05-14T04:05:01.155Z,992.14
2019-05-14T04:06:01.395Z,992.11
2019-05-14T04:08:05.539Z,992.15
2019-05-14T04:09:05.778Z,992.12
2019-05-14T04:11:09.950Z,992.12
2019-05-14T04:12:10.475Z,992.13
2019-05-14T04:14:14.336Z,992.09
2019-05-14T04:15:14.573Z,992.13
2019-05-14T04:17:31.753Z,992.12
2019-05-14T04:18:18.977Z,992.08
2019-05-14T04:20:23.147Z,992.13
2019-05-14T04:21:23.386Z,992.18
2019-05-14T04:23:28.999Z,992.16
2019-05-14T04:24:29.509Z,992.17
2019-05-14T04:26:50.669Z,992.17
2019-05-14T04:27:32.182Z,992.15
2019-05-14T04:29:39.399Z,992.16
2019-05-14T04:30:39.713Z,992.16
2019-05-14T04:32:29.724Z,992.22
2019-05-14T04:33:30.643Z,992.25
2019-05-14T04:35:34.064Z,992.27
2019-05-14T04:36:34.301Z,992.24
2019-05-14T04:38:40.866Z,992.23
2019-05-14T04:39:39.574Z,992.21
2019-05-14T04:41:42.849Z,992.24
2019-05-14T04:42:43.087Z,992.21
2019-05-14T04:44:50.001Z,992.20
2019-05-14T04:45:49.674Z,992.20
2019-05-14T04:47:51.633Z,992.23
2019-05-14T04:48:51.874Z,992.25
2019-05-14T04:50:56.037Z,992.25
2019-05-14T04:51:59.292Z,992.24
2019-05-14T04:54:00.418Z,992.28
2019-05-14T04:55:00.656Z,992.25
2019-05-14T04:57:04.820Z,992.29
2019-05-14T04:58:05.056Z,992.27
2019-05-14T05:00:12.292Z,992.28
2019-05-14T05:01:10.069Z,992.27
2019-05-14T05:03:13.604Z,992.28
2019-05-14T05:04:13.839Z,992.28
2019-05-14T05:06:19.196Z,992.35
2019-05-14T05:07:19.199Z,992.32
2019-05-14T05:09:22.384Z,992.39
2019-05-14T05:10:22.622Z,992.41
2019-05-14T05:12:15.715Z,992.37
2019-05-14T05:13:18.313Z,992.36
2019-05-14T05:15:20.117Z,992.35
2019-05-14T05:16:20.350Z,992.30
2019-05-14T05:18:24.498Z,992.27
2019-05-14T05:19:24.727Z,992.26
2019-05-14T05:21:28.892Z,992.25
2019-05-14T05:22:29.129Z,992.24
2019-05-14T05:24:33.274Z,992.23
2019-05-14T05:25:33.509Z,992.21
2019-05-14T05:27:38.309Z,992.21
2019-05-14T05:28:39.143Z,992.16
2019-05-14T05:30:42.077Z,992.15
2019-05-14T05:31:42.313Z,992.16
2019-05-14T05:33:48.739Z,992.16
2019-05-14T05:34:48.270Z,992.19
2019-05-14T05:36:50.864Z,992.13
2019-05-14T05:37:51.102Z,992.17
2019-05-14T05:39:55.265Z,992.27
2019-05-14T05:40:56.786Z,992.23
2019-05-14T05:42:49.110Z,992.23
2019-05-14T05:43:48.835Z,992.26
2019-05-14T05:45:52.984Z,992.27
2019-05-14T05:46:53.216Z,992.27
2019-05-14T05:48:58.692Z,992.26
2019-05-14T05:49:58.101Z,992.24
2019-05-14T05:52:01.766Z,992.24
2019-05-14T05:53:02.001Z,992.22
2019-05-14T05:55:06.170Z,992.21
2019-05-14T05:56:08.964Z,992.25
2019-05-14T05:58:10.574Z,992.24
2019-05-14T05:59:10.811Z,992.23
2019-05-14T06:01:14.959Z,992.20
2019-05-14T06:02:15.206Z,992.25
2019-05-14T06:04:19.366Z,992.24
2019-05-14T06:05:19.600Z,992.19
2019-05-14T06:07:23.743Z,992.20
2019-05-14T06:08:23.988Z,992.19
2019-05-14T06:10:29.079Z,992.21
2019-05-14T06:11:29.026Z,992.25
2019-05-14T06:13:32.557Z,992.26
2019-05-14T06:14:32.798Z,992.23
2019-05-14T06:16:38.430Z,992.21
2019-05-14T06:17:39.127Z,992.24
2019-05-14T06:19:41.348Z,992.22
2019-05-14T06:20:41.589Z,992.19
2019-05-14T06:22:34.664Z,992.16
2019-05-14T06:23:34.899Z,992.25
2019-05-14T06:25:40.061Z,992.30
2019-05-14T06:26:39.303Z,992.26
2019-05-14T06:28:43.502Z,992.28
2019-05-14T06:29:43.741Z,992.31
2019-05-14T06:31:49.519Z,992.27
2019-05-14T06:32:48.758Z,992.26
2019-05-14T06:34:52.288Z,992.27
2019-05-14T06:35:52.524Z,992.26
2019-05-14T06:37:58.266Z,992.23
2019-05-14T06:38:58.596Z,992.26
2019-05-14T06:41:01.100Z,992.25
2019-05-14T06:42:01.322Z,992.21
2019-05-14T06:44:05.492Z,992.22
2019-05-14T06:45:05.727Z,992.19
2019-05-14T06:47:09.881Z,992.23
2019-05-14T06:48:10.120Z,992.24
2019-05-14T06:50:14.309Z,992.20
2019-05-14T06:51:14.539Z,992.17
2019-05-14T06:53:19.430Z,992.27
2019-05-14T06:54:19.670Z,992.26
2019-05-14T06:56:23.102Z,992.23
2019-05-14T06:57:23.338Z,992.18
2019-05-14T06:59:28.745Z,992.29
2019-05-14T07:00:28.516Z,992.24
2019-05-14T07:02:20.832Z,992.28
2019-05-14T07:03:21.073Z,992.34
2019-05-14T07:05:25.261Z,992.33
2019-05-14T07:06:25.500Z,992.32
2019-05-14T07:08:29.655Z,992.36
2019-05-14T07:09:29.894Z,992.28
2019-05-14T07:11:34.060Z,992.33
2019-05-14T07:12:34.299Z,992.40
2019-05-14T07:14:38.983Z,992.41
2019-05-14T07:15:38.847Z,992.42
2019-05-14T07:17:42.879Z,992.32
2019-05-14T07:18:49.262Z,992.48
2019-05-14T07:20:48.517Z,992.44
2019-05-14T07:21:49.171Z,992.46
2019-05-14T07:23:51.700Z,992.53
2019-05-14T07:24:51.942Z,992.55
2019-05-14T07:26:58.584Z,992.53
2019-05-14T07:27:58.285Z,992.53
2019-05-14T07:30:00.536Z,992.49
2019-05-14T07:31:00.771Z,992.57
2019-05-14T07:32:53.881Z,992.61
2019-05-14T07:33:54.125Z,992.62
2019-05-14T07:35:59.319Z,992.65
2019-05-14T07:36:58.867Z,992.60
2019-05-14T07:39:02.719Z,992.55
2019-05-14T07:40:02.955Z,992.58
2019-05-14T07:42:09.892Z,992.58
2019-05-14T07:43:09.056Z,992.61
2019-05-14T07:45:11.556Z,992.57
2019-05-14T07:46:11.788Z,992.49
2019-05-14T07:48:15.980Z,992.47
2019-05-14T07:49:18.298Z,992.45
2019-05-14T07:51:20.404Z,992.45
2019-05-14T07:52:20.663Z,992.39
2019-05-14T07:54:24.805Z,992.42
2019-05-14T07:55:25.050Z,992.41
2019-05-14T07:57:29.247Z,992.50
2019-05-14T07:58:29.480Z,992.50
2019-05-14T08:00:33.646Z,992.59
2019-05-14T08:01:33.889Z,992.53
2019-05-14T08:03:38.394Z,992.44
2019-05-14T08:04:38.351Z,992.47
2019-05-14T08:06:42.511Z,992.48
2019-05-14T08:07:42.756Z,992.48
2019-05-14T08:09:48.076Z,992.51
2019-05-14T08:10:48.655Z,992.52
2019-05-14T08:12:40.282Z,992.12
2019-05-14T08:13:42.599Z,992.49
2019-05-14T08:15:44.688Z,992.52
2019-05-14T08:16:44.936Z,992.58
2019-05-14T08:18:49.119Z,992.19
2019-05-14T08:19:49.412Z,992.18
2019-05-14T08:21:53.546Z,992.85
2019-05-14T08:22:53.792Z,993.08
2019-05-14T08:24:58.169Z,992.06
2019-05-14T08:25:58.695Z,992.12
2019-05-14T08:28:02.395Z,992.69
2019-05-14T08:29:02.638Z,992.61
2019-05-14T08:31:09.144Z,992.64
2019-05-14T08:32:08.829Z,992.64
2019-05-14T08:34:11.230Z,992.57
2019-05-14T08:35:11.472Z,992.58
2019-05-14T08:37:15.656Z,992.53
2019-05-14T08:38:18.315Z,992.48
2019-05-14T08:40:20.979Z,992.49
2019-05-14T08:41:20.309Z,992.55
2019-05-14T08:43:24.496Z,992.50
2019-05-14T08:44:24.740Z,992.53
2019-05-14T08:46:28.907Z,992.60
2019-05-14T08:47:29.326Z,992.52
2019-05-14T08:49:42.585Z,992.48
2019-05-14T08:50:33.588Z,992.53
2019-05-14T08:52:28.763Z,992.54
2019-05-14T08:53:28.815Z,992.51
2019-05-14T08:55:31.119Z,992.50
2019-05-14T08:56:31.368Z,992.57
2019-05-14T08:58:38.276Z,992.77
2019-05-14T08:59:35.813Z,993.00
2019-05-14T09:01:56.910Z,993.13
2019-05-14T09:02:40.230Z,993.23
2019-05-14T09:04:44.462Z,992.96
2019-05-14T09:05:44.661Z,992.01
2019-05-14T09:07:49.179Z,993.66
2019-05-14T09:08:49.864Z,993.53
2019-05-14T09:10:53.257Z,993.52
2019-05-14T09:11:53.505Z,993.64
2019-05-14T09:13:59.445Z,993.65
2019-05-14T09:14:58.904Z,993.72
2019-05-14T09:17:02.106Z,993.66
2019-05-14T09:18:03.606Z,992.38
2019-05-14T09:20:08.404Z,993.81
2019-05-14T09:21:08.708Z,992.37
2019-05-14T09:23:10.974Z,993.74
2019-05-14T09:24:11.225Z,993.81
2019-05-14T09:26:15.390Z,993.87
2019-05-14T09:27:15.633Z,993.82
2019-05-14T09:29:25.838Z,993.81
2019-05-14T09:30:20.069Z,993.84
2019-05-14T09:32:13.166Z,991.95
2019-05-14T09:33:13.410Z,992.65
2019-05-14T09:35:18.859Z,993.65
2019-05-14T09:36:22.658Z,993.55
2019-05-14T09:38:22.046Z,993.45
2019-05-14T09:39:22.296Z,993.53
2019-05-14T09:41:30.155Z,993.39
2019-05-14T09:42:28.634Z,993.39
2019-05-14T09:44:30.906Z,993.33
2019-05-14T09:45:31.155Z,993.28
2019-05-14T09:47:35.350Z,993.14
2019-05-14T09:48:37.824Z,993.18
2019-05-14T09:50:39.776Z,993.07
2019-05-14T09:51:40.031Z,992.99
2019-05-14T09:53:44.236Z,992.93
2019-05-14T09:54:44.486Z,992.96
2019-05-14T09:56:48.686Z,992.95
2019-05-14T09:57:49.188Z,992.79
2019-05-14T09:59:53.093Z,992.85
2019-05-14T10:00:53.342Z,992.80
2019-05-14T10:02:49.336Z,992.87
2019-05-14T10:03:49.358Z,992.79
2019-05-14T10:05:50.879Z,992.34
2019-05-14T10:06:51.135Z,992.29
2019-05-14T10:08:55.329Z,992.18
2019-05-14T10:09:55.576Z,992.06
2019-05-14T10:11:59.750Z,991.63
2019-05-14T10:13:01.596Z,991.74
2019-05-14T10:15:04.190Z,992.21
2019-05-14T10:16:04.441Z,991.75
2019-05-14T10:18:11.756Z,992.14
2019-05-14T10:19:08.883Z,992.20
2019-05-14T10:21:13.054Z,992.18
2019-05-14T10:22:13.306Z,992.27
2019-05-14T10:24:18.573Z,992.55
2019-05-14T10:25:18.218Z,992.80
2019-05-14T10:27:21.916Z,992.84
2019-05-14T10:28:22.164Z,992.94
2019-05-14T10:30:28.457Z,992.82
2019-05-14T10:31:28.478Z,992.87
2019-05-14T10:33:30.802Z,992.80
2019-05-14T10:34:31.052Z,992.66
2019-05-14T10:36:35.231Z,992.70
2019-05-14T10:37:35.479Z,992.66
2019-05-14T10:39:39.670Z,992.67
2019-05-14T10:40:39.924Z,992.64
2019-05-14T10:42:33.032Z,992.70
2019-05-14T10:43:33.277Z,991.54
2019-05-14T10:45:38.483Z,992.68
2019-05-14T10:46:38.416Z,991.82
2019-05-14T10:48:41.908Z,992.01
2019-05-14T10:49:42.160Z,991.62
2019-05-14T10:51:48.007Z,991.53
2019-05-14T10:52:48.907Z,991.53
2019-05-14T10:54:55.704Z,991.55
2019-05-14T10:55:51.013Z,991.50
2019-05-14T10:57:55.183Z,991.49
2019-05-14T10:58:55.425Z,991.49
2019-05-14T11:00:59.617Z,991.36
2019-05-14T11:01:59.877Z,992.33
2019-05-14T11:04:04.078Z,991.48
2019-05-14T11:05:04.323Z,992.04
2019-05-14T11:07:08.490Z,991.39
2019-05-14T11:08:11.971Z,991.35
2019-05-14T11:10:12.929Z,991.34
2019-05-14T11:11:13.173Z,991.32
2019-05-14T11:13:19.011Z,991.27
2019-05-14T11:14:19.221Z,991.29
2019-05-14T11:16:21.771Z,991.24
2019-05-14T11:17:22.011Z,991.20
2019-05-14T11:19:28.084Z,991.18
2019-05-14T11:20:30.785Z,991.22
2019-05-14T11:22:19.535Z,991.14
2019-05-14T11:23:19.780Z,991.10
2019-05-14T11:25:23.959Z,990.96
2019-05-14T11:26:24.948Z,990.99
2019-05-14T11:28:28.852Z,991.05
2019-05-14T11:29:29.593Z,991.23
2019-05-14T11:31:34.338Z,991.08
2019-05-14T11:32:33.044Z,991.11
2019-05-14T11:34:39.035Z,991.06
2019-05-14T11:35:39.450Z,991.06
2019-05-14T11:37:41.653Z,991.05
2019-05-14T11:38:41.893Z,991.65
2019-05-14T11:40:46.054Z,991.52
2019-05-14T11:41:46.297Z,991.55
2019-05-14T11:43:50.468Z,991.44
2019-05-14T11:44:50.710Z,991.49
2019-05-14T11:46:57.882Z,991.45
2019-05-14T11:47:55.141Z,991.47
2019-05-14T11:49:59.341Z,990.81
2019-05-14T11:50:59.711Z,990.84
2019-05-14T11:52:52.688Z,990.76
2019-05-14T11:53:52.935Z,990.73
2019-05-14T11:55:58.689Z,990.73
2019-05-14T11:56:58.959Z,990.77
2019-05-14T11:59:01.557Z,991.01
2019-05-14T12:00:01.788Z,991.08
2019-05-14T12:02:05.975Z,990.77
2019-05-14T12:03:06.219Z,991.27
2019-05-14T12:05:10.384Z,990.70
2019-05-14T12:06:10.636Z,991.25
2019-05-14T12:08:14.822Z,991.26
2019-05-14T12:09:15.077Z,991.09
2019-05-14T12:11:19.699Z,990.85
2019-05-14T12:12:19.507Z,990.66
2019-05-14T12:14:23.680Z,991.06
2019-05-14T12:15:23.925Z,991.09
2019-05-14T12:17:29.490Z,991.11
2019-05-14T12:18:29.159Z,990.98
2019-05-14T12:20:32.539Z,991.08
2019-05-14T12:21:32.788Z,991.07
2019-05-14T12:23:39.153Z,990.59
2019-05-14T12:24:38.724Z,990.68
2019-05-14T12:26:41.442Z,990.58
2019-05-14T12:27:41.685Z,990.46
2019-05-14T12:29:49.490Z,990.45
2019-05-14T12:30:48.746Z,990.77
2019-05-14T12:32:39.858Z,990.83
2019-05-14T12:33:39.889Z,990.76
2019-05-14T12:35:43.633Z,990.41
2019-05-14T12:36:43.881Z,990.30
2019-05-14T12:38:48.069Z,990.27
2019-05-14T12:39:48.316Z,990.25
2019-05-14T12:41:52.500Z,990.24
2019-05-14T12:42:52.749Z,990.10
2019-05-14T12:44:58.578Z,990.14
2019-05-14T12:45:59.274Z,990.05
2019-05-14T12:48:02.378Z,989.99
2019-05-14T12:49:02.618Z,990.10
2019-05-14T12:51:08.997Z,990.20
2019-05-14T12:52:21.007Z,990.33
2019-05-14T12:54:11.231Z,990.16
2019-05-14T12:55:11.493Z,990.17
2019-05-14T12:57:18.746Z,990.39
2019-05-14T12:58:16.008Z,990.21
2019-05-14T13:00:20.184Z,990.37
2019-05-14T13:01:20.436Z,990.18
2019-05-14T13:03:24.632Z,990.04
2019-05-14T13:04:24.869Z,990.15
2019-05-14T13:06:29.514Z,990.06
2019-05-14T13:07:29.393Z,990.11
2019-05-14T13:09:33.561Z,990.02
2019-05-14T13:10:33.826Z,989.96
2019-05-14T13:12:29.567Z,989.91
2019-05-14T13:13:29.098Z,989.90
2019-05-14T13:15:31.425Z,989.90
2019-05-14T13:16:31.672Z,989.88
2019-05-14T13:18:38.435Z,989.90
2019-05-14T13:19:38.010Z,990.01
2019-05-14T13:21:40.361Z,990.16
2019-05-14T13:22:46.082Z,990.12
2019-05-14T13:24:44.897Z,990.13
2019-05-14T13:25:45.225Z,990.06
2019-05-14T13:27:49.486Z,989.96
2019-05-14T13:28:50.771Z,990.11
2019-05-14T13:30:53.887Z,990.03
2019-05-14T13:31:54.165Z,990.02
2019-05-14T13:33:59.407Z,990.06
2019-05-14T13:34:59.238Z,989.99
2019-05-14T13:37:02.769Z,989.69
2019-05-14T13:38:03.061Z,989.73
2019-05-14T13:40:09.234Z,989.79
2019-05-14T13:41:08.649Z,989.60
2019-05-14T13:43:14.411Z,989.47
2019-05-14T13:44:23.679Z,989.80
2019-05-14T13:46:18.806Z,989.50
2019-05-14T13:47:18.177Z,989.61
2019-05-14T13:49:20.653Z,989.61
2019-05-14T13:50:20.897Z,989.55
2019-05-14T13:52:13.997Z,989.54
2019-05-14T13:53:14.244Z,989.51
2019-05-14T13:55:19.499Z,989.42
2019-05-14T13:56:19.058Z,989.54
2019-05-14T13:58:22.885Z,989.46
2019-05-14T13:59:23.195Z,989.44
2019-05-14T14:01:29.731Z,989.46
2019-05-14T14:02:31.063Z,989.45
2019-05-14T14:04:31.804Z,989.60
2019-05-14T14:05:32.050Z,989.53
2019-05-14T14:07:39.113Z,989.48
2019-05-14T14:08:41.926Z,989.47
2019-05-14T14:10:45.648Z,989.36
2019-05-14T14:11:41.008Z,989.37
2019-05-14T14:13:45.188Z,989.28
2019-05-14T14:14:45.437Z,989.35
2019-05-14T14:16:49.605Z,989.28
2019-05-14T14:17:49.850Z,989.28
2019-05-14T14:19:54.116Z,989.23
2019-05-14T14:20:54.359Z,989.20
2019-05-14T14:22:49.034Z,989.20
2019-05-14T14:23:49.371Z,989.12
2019-05-14T14:25:54.648Z,989.13
2019-05-14T14:26:52.209Z,989.14
2019-05-14T14:28:56.393Z,989.06
2019-05-14T14:29:58.515Z,989.07
2019-05-14T14:32:00.797Z,989.08
2019-05-14T14:33:01.040Z,989.07
2019-05-14T14:35:05.223Z,989.03
2019-05-14T14:36:05.470Z,988.98
2019-05-14T14:38:09.634Z,988.97
2019-05-14T14:39:09.999Z,989.19
2019-05-14T14:41:14.050Z,989.18
2019-05-14T14:42:14.297Z,989.28
2019-05-14T14:44:19.162Z,989.23
2019-05-14T14:45:21.773Z,989.21
2019-05-14T14:47:22.893Z,988.98
2019-05-14T14:48:23.136Z,989.09
2019-05-14T14:50:28.926Z,988.87
2019-05-14T14:51:28.440Z,988.99
2019-05-14T14:53:51.326Z,988.83
2019-05-14T14:54:31.977Z,988.85
2019-05-14T14:56:37.934Z,988.82
2019-05-14T14:57:43.934Z,988.82
2019-05-14T14:59:40.602Z,988.83
2019-05-14T15:00:40.848Z,988.81
2019-05-14T15:02:33.946Z,988.84
2019-05-14T15:03:34.181Z,988.78
2019-05-14T15:05:39.047Z,988.73
2019-05-14T15:06:39.952Z,988.72
2019-05-14T15:08:42.783Z,988.69
2019-05-14T15:09:43.027Z,988.70
2019-05-14T15:11:48.961Z,988.58
2019-05-14T15:12:49.628Z,988.63
2019-05-14T15:14:51.619Z,988.61
2019-05-14T15:15:51.860Z,988.64
2019-05-14T15:17:56.044Z,988.66
2019-05-14T15:18:58.333Z,988.59
2019-05-14T15:21:00.473Z,988.51
2019-05-14T15:22:00.720Z,988.55
2019-05-14T15:24:13.788Z,988.53
2019-05-14T15:25:05.121Z,988.55
2019-05-14T15:27:15.114Z,988.56
2019-05-14T15:28:09.616Z,988.55
2019-05-14T15:30:13.722Z,988.53
2019-05-14T15:31:13.964Z,988.55
2019-05-14T15:33:18.894Z,988.54
2019-05-14T15:34:18.888Z,988.51
2019-05-14T15:36:22.548Z,988.49
2019-05-14T15:37:22.788Z,988.48
2019-05-14T15:39:29.872Z,988.48
2019-05-14T15:40:28.950Z,988.47
2019-05-14T15:42:20.296Z,988.41
2019-05-14T15:43:20.535Z,988.44
2019-05-14T15:45:24.693Z,988.41
2019-05-14T15:46:24.934Z,988.40
2019-05-14T15:48:29.108Z,988.37
2019-05-14T15:49:29.358Z,988.39
2019-05-14T15:51:33.532Z,988.43
2019-05-14T15:52:33.775Z,988.44
2019-05-14T15:54:46.280Z,988.40
2019-05-14T15:55:38.411Z,988.35
2019-05-14T15:57:42.349Z,988.30
2019-05-14T15:58:42.587Z,988.10
2019-05-14T16:00:46.747Z,988.33
2019-05-14T16:01:46.987Z,988.33
2019-05-14T16:03:51.163Z,988.32
2019-05-14T16:04:51.419Z,988.35
2019-05-14T16:06:55.580Z,988.35
2019-05-14T16:07:55.822Z,988.38
2019-05-14T16:10:00.916Z,988.38
2019-05-14T16:11:00.477Z,988.36
2019-05-14T16:12:53.325Z,988.39
2019-05-14T16:13:53.567Z,988.33
2019-05-14T16:15:57.728Z,988.35
2019-05-14T16:16:57.963Z,988.38
2019-05-14T16:19:02.139Z,988.18
2019-05-14T16:20:02.392Z,988.18
2019-05-14T16:22:09.513Z,988.33
2019-05-14T16:23:10.604Z,988.33
2019-05-14T16:25:10.962Z,988.30
2019-05-14T16:26:11.200Z,988.36
2019-05-14T16:28:15.380Z,988.35
2019-05-14T16:29:15.620Z,988.26
2019-05-14T16:31:19.776Z,988.19
2019-05-14T16:32:20.024Z,988.27
2019-05-14T16:34:24.198Z,988.38
2019-05-14T16:35:24.439Z,988.32
2019-05-14T16:37:28.617Z,988.30
2019-05-14T16:38:28.866Z,988.29
2019-05-14T16:40:33.017Z,988.28
2019-05-14T16:41:33.254Z,988.20
2019-05-14T16:43:39.872Z,988.25
2019-05-14T16:44:39.130Z,988.23
2019-05-14T16:46:41.838Z,988.20
2019-05-14T16:47:42.079Z,988.16
2019-05-14T16:49:48.203Z,988.27
2019-05-14T16:50:48.801Z,988.24
2019-05-14T16:52:42.269Z,988.20
2019-05-14T16:53:39.851Z,988.13
2019-05-14T16:55:44.010Z,988.12
2019-05-14T16:56:44.257Z,988.19
2019-05-14T16:58:48.428Z,988.21
2019-05-14T16:59:49.675Z,988.18
2019-05-14T17:01:52.822Z,988.13
2019-05-14T17:02:53.060Z,988.14
2019-05-14T17:04:59.053Z,988.11
2019-05-14T17:05:58.031Z,988.14
2019-05-14T17:08:01.668Z,988.13
2019-05-14T17:09:01.916Z,988.19
2019-05-14T17:11:08.686Z,988.19
2019-05-14T17:12:08.342Z,988.14
2019-05-14T17:14:10.482Z,988.13
2019-05-14T17:15:10.722Z,988.09
2019-05-14T17:17:14.879Z,988.08
2019-05-14T17:18:15.131Z,988.10
2019-05-14T17:20:20.464Z,988.09
2019-05-14T17:21:19.533Z,988.07
2019-05-14T17:23:23.710Z,988.11
2019-05-14T17:24:23.952Z,988.10
2019-05-14T17:26:28.793Z,988.07
2019-05-14T17:27:28.663Z,988.10
2019-05-14T17:29:32.524Z,988.09
2019-05-14T17:30:32.765Z,988.10
2019-05-14T17:32:25.846Z,988.10
2019-05-14T17:33:26.090Z,988.12
2019-05-14T17:35:30.269Z,988.10
2019-05-14T17:36:30.510Z,988.11
2019-05-14T17:38:34.686Z,988.10
2019-05-14T17:39:34.929Z,988.10
2019-05-14T17:41:42.033Z,988.09
2019-05-14T17:42:39.779Z,988.13
2019-05-14T17:44:43.530Z,988.09
2019-05-14T17:45:43.769Z,988.07
2019-05-14T17:47:49.037Z,988.06
2019-05-14T17:48:48.779Z,988.05
2019-05-14T17:50:52.328Z,988.00
2019-05-14T17:51:52.571Z,988.00
2019-05-14T17:53:58.714Z,988.01
2019-05-14T17:54:57.168Z,987.94
2019-05-14T17:57:01.374Z,987.97
2019-05-14T17:58:01.627Z,988.02
2019-05-14T18:00:05.845Z,987.91
2019-05-14T18:01:08.803Z,987.96
2019-05-14T18:03:10.235Z,987.99
2019-05-14T18:04:10.524Z,987.98
2019-05-14T18:06:14.765Z,987.99
2019-05-14T18:07:15.028Z,987.92
2019-05-14T18:09:19.737Z,987.98
2019-05-14T18:10:19.718Z,987.98
2019-05-14T18:12:12.579Z,987.95
2019-05-14T18:13:12.825Z,987.97
2019-05-14T18:15:16.997Z,988.00
2019-05-14T18:16:19.107Z,988.05
2019-05-14T18:18:21.464Z,988.04
2019-05-14T18:19:21.705Z,987.99
2019-05-14T18:21:28.255Z,988.06
2019-05-14T18:22:28.471Z,988.01
2019-05-14T18:24:30.284Z,988.04
2019-05-14T18:25:30.522Z,988.01
2019-05-14T18:27:34.669Z,987.98
2019-05-14T18:28:34.913Z,987.97
2019-05-14T18:30:39.077Z,987.97
2019-05-14T18:31:44.511Z,988.01
2019-05-14T18:33:43.489Z,987.96
2019-05-14T18:34:43.707Z,988.01
2019-05-14T18:36:48.862Z,988.01
2019-05-14T18:37:48.318Z,987.99
2019-05-14T18:39:52.293Z,988.03
2019-05-14T18:40:52.527Z,988.06
2019-05-14T18:42:47.913Z,988.01
2019-05-14T18:43:45.848Z,988.04
2019-05-14T18:45:50.455Z,988.03
2019-05-14T18:46:50.261Z,988.04
2019-05-14T18:48:54.416Z,987.99
2019-05-14T18:49:54.658Z,988.01
2019-05-14T18:51:59.305Z,988.00
2019-05-14T18:52:59.888Z,988.03
2019-05-14T18:55:03.230Z,988.02
2019-05-14T18:56:16.559Z,988.04
2019-05-14T18:58:08.592Z,987.99
2019-05-14T18:59:08.912Z,987.98
2019-05-14T19:01:12.024Z,987.96
2019-05-14T19:02:12.264Z,987.94
2019-05-14T19:04:18.413Z,987.94